createdAt,value
2018-08-24T00:00:45.358Z,10.48
2018-08-24T00:03:49.794Z,8.55
2018-08-24T00:06:54.200Z,8.88
2018-08-24T00:09:58.619Z,8.75
2018-08-24T00:13:03.036Z,8.90
2018-08-24T00:16:07.464Z,9.05
2018-08-24T00:19:13.940Z,9.50
2018-08-24T00:22:18.387Z,11.03
2018-08-24T00:25:22.809Z,7.60
2018-08-24T00:28:27.233Z,8.73
2018-08-24T00:31:31.752Z,8.10
2018-08-24T00:34:36.191Z,8.83
2018-08-24T00:37:40.611Z,8.75
2018-08-24T00:40:45.015Z,7.53
2018-08-24T00:43:49.455Z,10.38
2018-08-24T00:46:53.859Z,7.95
2018-08-24T00:49:58.273Z,7.80
2018-08-24T00:53:02.765Z,7.83
2018-08-24T00:56:07.974Z,7.85
2018-08-24T00:59:12.405Z,9.08
2018-08-24T01:02:16.822Z,8.08
2018-08-24T01:05:21.243Z,11.15
2018-08-24T01:08:25.678Z,10.88
2018-08-24T01:11:35.106Z,8.20
2018-08-24T01:14:41.337Z,9.45
2018-08-24T01:17:50.990Z,8.48
2018-08-24T01:20:56.134Z,10.08
2018-08-24T01:24:00.602Z,8.13
2018-08-24T01:27:05.987Z,8.78
2018-08-24T01:30:10.427Z,7.95
2018-08-24T01:33:15.139Z,9.50
2018-08-24T01:36:19.583Z,9.25
2018-08-24T01:39:24.080Z,8.38
2018-08-24T01:42:28.486Z,8.95
2018-08-24T01:45:32.917Z,8.95
2018-08-24T01:48:37.502Z,11.73
2018-08-24T01:51:41.922Z,8.45
2018-08-24T01:54:46.346Z,8.10
2018-08-24T01:57:50.749Z,9.60
2018-08-24T02:00:55.174Z,10.80
2018-08-24T02:03:59.598Z,9.23
2018-08-24T02:07:04.009Z,11.57
2018-08-24T02:10:13.659Z,10.88
2018-08-24T02:13:23.305Z,7.92
2018-08-24T02:16:31.828Z,8.15
2018-08-24T02:19:41.434Z,10.85
2018-08-24T02:22:50.009Z,8.95
2018-08-24T02:25:54.446Z,8.38
2018-08-24T02:28:58.862Z,7.45
2018-08-24T02:32:03.370Z,8.55
2018-08-24T02:35:09.125Z,8.23
2018-08-24T02:38:13.534Z,9.30
2018-08-24T02:41:17.974Z,8.03
2018-08-24T02:44:22.394Z,8.98
2018-08-24T02:47:26.818Z,10.38
2018-08-24T02:50:31.266Z,9.70
2018-08-24T02:53:35.716Z,7.25
2018-08-24T02:56:40.135Z,7.65
2018-08-24T02:59:44.704Z,7.45
2018-08-24T03:02:49.146Z,7.55
2018-08-24T03:05:53.626Z,8.50
2018-08-24T03:08:58.048Z,6.30
2018-08-24T03:12:02.474Z,7.10
2018-08-24T03:15:06.929Z,8.80
2018-08-24T03:18:11.391Z,7.70
2018-08-24T03:21:15.838Z,5.47
2018-08-24T03:24:20.234Z,10.15
2018-08-24T03:27:24.686Z,7.92
2018-08-24T03:30:29.110Z,9.60
2018-08-24T03:33:33.538Z,5.83
2018-08-24T03:36:37.957Z,6.97
2018-08-24T03:39:42.374Z,6.10
2018-08-24T03:42:46.819Z,6.80
2018-08-24T03:45:51.269Z,6.33
2018-08-24T03:48:55.737Z,5.40
2018-08-24T03:52:00.174Z,8.23
2018-08-24T03:55:04.641Z,7.83
2018-08-24T03:58:09.125Z,6.62
2018-08-24T04:01:13.602Z,7.37
2018-08-24T04:04:18.026Z,6.67
2018-08-24T04:07:22.450Z,13.68
2018-08-24T04:10:27.350Z,7.22
2018-08-24T04:13:31.789Z,7.53
2018-08-24T04:16:41.226Z,5.20
2018-08-24T04:19:45.643Z,7.17
2018-08-24T04:22:50.122Z,5.92
2018-08-24T04:25:54.577Z,8.45
2018-08-24T04:28:58.977Z,8.18
2018-08-24T04:32:03.437Z,6.03
2018-08-24T04:35:08.038Z,8.50
2018-08-24T04:38:12.462Z,6.70
2018-08-24T04:41:16.938Z,5.90
2018-08-24T04:44:21.364Z,5.28
2018-08-24T04:47:25.806Z,6.35
2018-08-24T04:50:30.255Z,7.97
2018-08-24T04:53:34.693Z,6.28
2018-08-24T04:56:39.108Z,6.20
2018-08-24T04:59:43.531Z,6.33
2018-08-24T05:02:47.970Z,6.28
2018-08-24T05:05:52.406Z,6.80
2018-08-24T05:08:56.824Z,6.30
2018-08-24T05:12:01.246Z,6.95
2018-08-24T05:15:05.684Z,6.58
2018-08-24T05:18:10.150Z,6.80
2018-08-24T05:21:14.604Z,6.83
2018-08-24T05:24:19.022Z,6.72
2018-08-24T05:27:23.461Z,6.22
2018-08-24T05:30:27.875Z,7.25
2018-08-24T05:33:32.327Z,5.62
2018-08-24T05:36:36.729Z,7.08
2018-08-24T05:39:41.158Z,7.05
2018-08-24T05:42:45.573Z,8.43
2018-08-24T05:45:50.002Z,5.30
2018-08-24T05:48:54.507Z,6.67
2018-08-24T05:51:58.861Z,7.17
2018-08-24T05:55:03.335Z,6.67
2018-08-24T05:58:08.287Z,10.55
2018-08-24T06:01:12.806Z,8.70
2018-08-24T06:04:17.234Z,7.03
2018-08-24T06:07:21.651Z,8.25
2018-08-24T06:10:26.098Z,9.10
2018-08-24T06:13:30.542Z,7.53
2018-08-24T06:16:35.062Z,5.78
2018-08-24T06:19:39.683Z,6.50
2018-08-24T06:22:44.102Z,7.45
2018-08-24T06:25:48.542Z,18.60
2018-08-24T06:28:52.996Z,11.83
2018-08-24T06:31:57.420Z,7.90
2018-08-24T06:35:01.865Z,7.28
2018-08-24T06:38:06.368Z,10.28
2018-08-24T06:41:10.798Z,7.70
2018-08-24T06:44:15.219Z,7.62
2018-08-24T06:47:19.735Z,5.25
2018-08-24T06:50:24.146Z,5.95
2018-08-24T06:53:28.667Z,7.72
2018-08-24T06:56:33.072Z,5.97
2018-08-24T06:59:37.626Z,7.83
2018-08-24T07:02:42.035Z,5.47
2018-08-24T07:05:46.572Z,5.08
2018-08-24T07:08:50.933Z,5.12
2018-08-24T07:11:55.344Z,7.08
2018-08-24T07:14:59.772Z,4.42
2018-08-24T07:18:04.313Z,7.15
2018-08-24T07:21:08.741Z,6.75
2018-08-24T07:24:13.162Z,5.95
2018-08-24T07:27:17.579Z,5.60
2018-08-24T07:30:22.016Z,8.48
2018-08-24T07:33:26.467Z,5.30
2018-08-24T07:36:30.951Z,5.47
2018-08-24T07:39:35.389Z,5.25
2018-08-24T07:42:39.835Z,5.62
2018-08-24T07:45:44.282Z,5.15
2018-08-24T07:48:48.706Z,5.37
2018-08-24T07:51:53.122Z,6.75
2018-08-24T07:54:57.561Z,5.40
2018-08-24T07:58:01.970Z,6.53
2018-08-24T08:01:06.518Z,5.85
2018-08-24T08:04:10.929Z,3.02
2018-08-24T08:07:15.386Z,5.22
2018-08-24T08:10:19.815Z,4.70
2018-08-24T08:13:24.210Z,2.62
2018-08-24T08:16:28.630Z,2.60
2018-08-24T08:19:33.138Z,3.33
2018-08-24T08:22:37.565Z,4.95
2018-08-24T08:25:42.007Z,2.62
2018-08-24T08:28:46.410Z,4.40
2018-08-24T08:31:51.054Z,4.53
2018-08-24T08:34:55.482Z,4.37
2018-08-24T08:37:59.975Z,3.00
2018-08-24T08:41:04.434Z,3.17
2018-08-24T08:44:08.946Z,4.92
2018-08-24T08:47:13.410Z,3.42
2018-08-24T08:50:17.836Z,3.65
2018-08-24T08:53:22.260Z,6.65
2018-08-24T08:56:26.697Z,4.15
2018-08-24T08:59:31.111Z,2.83
2018-08-24T09:02:35.533Z,3.27
2018-08-24T09:05:40.049Z,5.03
2018-08-24T09:08:44.454Z,5.58
2018-08-24T09:11:48.912Z,4.20
2018-08-24T09:14:53.332Z,3.27
2018-08-24T09:18:03.068Z,5.28
2018-08-24T09:21:12.774Z,7.08
2018-08-24T09:24:22.342Z,2.70
2018-08-24T09:27:35.790Z,3.00
2018-08-24T09:30:44.418Z,5.67
2018-08-24T09:33:48.854Z,2.95
2018-08-24T09:36:53.287Z,3.08
2018-08-24T09:39:57.710Z,3.77
2018-08-24T09:43:06.265Z,3.50
2018-08-24T09:46:10.718Z,4.78
2018-08-24T09:49:20.311Z,3.95
2018-08-24T09:52:28.148Z,3.45
2018-08-24T09:55:37.798Z,5.00
2018-08-24T09:58:42.250Z,5.37
2018-08-24T10:01:51.951Z,4.00
2018-08-24T10:05:01.513Z,3.50
2018-08-24T10:08:11.217Z,5.25
2018-08-24T10:11:15.713Z,6.15
2018-08-24T10:14:20.150Z,3.98
2018-08-24T10:17:26.978Z,2.90
2018-08-24T10:20:31.442Z,3.42
2018-08-24T10:23:35.933Z,5.30
2018-08-24T10:26:40.653Z,9.35
2018-08-24T10:29:45.158Z,3.98
2018-08-24T10:32:49.652Z,4.62
2018-08-24T10:35:54.071Z,3.95
2018-08-24T10:38:58.583Z,3.72
2018-08-24T10:42:02.963Z,5.12
2018-08-24T10:45:07.650Z,4.70
2018-08-24T10:48:12.155Z,2.45
2018-08-24T10:51:16.604Z,4.20
2018-08-24T10:54:21.046Z,6.42
2018-08-24T10:57:25.493Z,5.45
2018-08-24T11:00:29.922Z,5.05
2018-08-24T11:03:34.352Z,5.40
2018-08-24T11:06:38.806Z,5.35
2018-08-24T11:09:43.241Z,5.80
2018-08-24T11:12:47.703Z,4.97
2018-08-24T11:15:52.571Z,7.12
2018-08-24T11:18:57.010Z,7.95
2018-08-24T11:22:01.423Z,6.58
2018-08-24T11:25:06.347Z,6.08
2018-08-24T11:28:10.890Z,5.97
2018-08-24T11:31:15.334Z,5.90
2018-08-24T11:34:19.800Z,7.93
2018-08-24T11:37:24.281Z,6.87
2018-08-24T11:40:28.801Z,7.80
2018-08-24T11:43:33.263Z,6.78
2018-08-24T11:46:37.657Z,7.70
2018-08-24T11:49:42.090Z,8.47
2018-08-24T11:52:46.504Z,8.15
2018-08-24T11:55:50.943Z,10.57
2018-08-24T11:58:55.366Z,7.62
2018-08-24T12:01:59.814Z,9.10
2018-08-24T12:05:04.466Z,9.13
2018-08-24T12:08:09.000Z,8.28
2018-08-24T12:11:20.090Z,10.10
2018-08-24T12:14:25.263Z,11.38
2018-08-24T12:17:34.158Z,13.58
2018-08-24T12:20:38.585Z,12.75
2018-08-24T12:23:43.006Z,13.38
2018-08-24T12:26:47.414Z,13.75
2018-08-24T12:29:51.922Z,15.10
2018-08-24T12:32:56.415Z,14.85
2018-08-24T12:36:00.842Z,13.80
2018-08-24T12:39:08.239Z,13.95
2018-08-24T12:42:13.310Z,14.45
2018-08-24T12:45:17.782Z,14.15
2018-08-24T12:48:22.264Z,14.98
2018-08-24T12:51:27.006Z,14.78
2018-08-24T12:54:31.461Z,12.00
2018-08-24T12:57:35.874Z,14.45
2018-08-24T13:00:40.354Z,12.35
2018-08-24T13:03:44.991Z,13.60
2018-08-24T13:06:49.425Z,14.70
2018-08-24T13:09:53.854Z,12.90
2018-08-24T13:12:58.273Z,12.50
2018-08-24T13:16:02.833Z,13.58
2018-08-24T13:19:07.822Z,13.90
2018-08-24T13:22:12.291Z,13.93
2018-08-24T13:25:16.722Z,12.00
2018-08-24T13:28:21.174Z,15.20
2018-08-24T13:31:25.655Z,14.70
2018-08-24T13:34:30.142Z,13.98
2018-08-24T13:37:34.591Z,14.17
2018-08-24T13:40:39.032Z,13.47
2018-08-24T13:43:43.513Z,12.23
2018-08-24T13:46:47.934Z,14.63
2018-08-24T13:49:52.357Z,12.73
2018-08-24T13:52:56.911Z,14.07
2018-08-24T13:56:01.338Z,12.13
2018-08-24T13:59:05.782Z,10.53
2018-08-24T14:02:10.220Z,11.20
2018-08-24T14:05:14.656Z,9.98
2018-08-24T14:08:19.072Z,10.63
2018-08-24T14:11:23.521Z,9.83
2018-08-24T14:14:27.936Z,11.05
2018-08-24T14:17:32.359Z,11.60
2018-08-24T14:20:36.761Z,8.88
2018-08-24T14:23:41.254Z,9.20
2018-08-24T14:26:45.723Z,11.63
2018-08-24T14:29:50.145Z,9.75
2018-08-24T14:32:54.586Z,10.15
2018-08-24T14:35:58.981Z,8.60
2018-08-24T14:39:03.512Z,11.73
2018-08-24T14:42:07.967Z,8.08
2018-08-24T14:45:12.441Z,10.23
2018-08-24T14:48:17.062Z,9.55
2018-08-24T14:51:21.479Z,10.13
2018-08-24T14:54:25.918Z,9.18
2018-08-24T14:57:30.416Z,10.20
2018-08-24T15:00:34.851Z,10.00
2018-08-24T15:03:39.306Z,9.35
2018-08-24T15:06:43.722Z,10.23
2018-08-24T15:09:48.208Z,10.00
2018-08-24T15:12:52.655Z,9.00
2018-08-24T15:15:57.061Z,9.90
2018-08-24T15:19:01.575Z,11.63
2018-08-24T15:22:06.078Z,8.15
2018-08-24T15:25:10.505Z,8.73
2018-08-24T15:28:14.942Z,11.20
2018-08-24T15:31:26.085Z,8.03
2018-08-24T15:34:30.518Z,9.75
2018-08-24T15:37:34.957Z,10.08
2018-08-24T15:40:39.381Z,8.70
2018-08-24T15:43:43.802Z,9.93
2018-08-24T15:46:48.230Z,8.70
2018-08-24T15:49:52.654Z,8.90
2018-08-24T15:52:57.082Z,7.97
2018-08-24T15:56:01.478Z,8.40
2018-08-24T15:59:06.024Z,10.35
2018-08-24T16:02:10.438Z,7.78
2018-08-24T16:05:14.871Z,9.35
2018-08-24T16:08:19.290Z,8.23
2018-08-24T16:11:23.726Z,11.38
2018-08-24T16:14:28.267Z,7.10
2018-08-24T16:17:32.730Z,7.30
2018-08-24T16:20:37.151Z,7.50
2018-08-24T16:23:42.926Z,10.93
2018-08-24T16:26:47.613Z,8.48
2018-08-24T16:29:55.467Z,8.65
2018-08-24T16:32:59.939Z,6.92
2018-08-24T16:36:04.359Z,7.53
2018-08-24T16:39:09.703Z,7.22
2018-08-24T16:42:14.122Z,6.92
2018-08-24T16:45:18.550Z,11.00
2018-08-24T16:48:22.978Z,7.40
2018-08-24T16:51:27.424Z,8.30
2018-08-24T16:54:31.856Z,6.55
2018-08-24T16:57:36.287Z,9.08
2018-08-24T17:00:40.731Z,6.78
2018-08-24T17:03:45.205Z,8.58
2018-08-24T17:06:49.642Z,6.67
2018-08-24T17:09:54.132Z,8.03
2018-08-24T17:12:58.591Z,7.80
2018-08-24T17:16:03.874Z,6.75
2018-08-24T17:19:08.360Z,9.68
2018-08-24T17:22:12.789Z,8.73
2018-08-24T17:25:17.227Z,7.87
2018-08-24T17:28:21.643Z,6.92
2018-08-24T17:31:26.086Z,9.95
2018-08-24T17:34:30.545Z,7.62
2018-08-24T17:37:34.947Z,8.68
2018-08-24T17:40:39.426Z,7.47
2018-08-24T17:43:44.006Z,9.35
2018-08-24T17:46:48.464Z,8.35
2018-08-24T17:49:52.900Z,9.45
2018-08-24T17:52:57.310Z,7.85
2018-08-24T17:56:01.743Z,6.30
2018-08-24T17:59:06.243Z,7.75
2018-08-24T18:02:10.709Z,8.35
2018-08-24T18:05:15.141Z,7.73
2018-08-24T18:08:19.627Z,6.47
2018-08-24T18:11:24.050Z,11.45
2018-08-24T18:14:28.464Z,7.90
2018-08-24T18:17:32.890Z,8.85
2018-08-24T18:20:37.435Z,7.78
2018-08-24T18:23:42.014Z,10.45
2018-08-24T18:26:46.494Z,9.10
2018-08-24T18:29:50.919Z,8.93
2018-08-24T18:32:55.354Z,8.15
2018-08-24T18:35:59.792Z,10.48
2018-08-24T18:39:05.999Z,8.03
2018-08-24T18:42:10.454Z,7.97
2018-08-24T18:45:14.902Z,10.00
2018-08-24T18:48:19.326Z,8.17
2018-08-24T18:51:23.798Z,9.53
2018-08-24T18:54:28.206Z,9.85
2018-08-24T18:57:33.178Z,9.35
2018-08-24T19:00:37.615Z,8.37
2018-08-24T19:03:42.022Z,10.30
2018-08-24T19:06:46.446Z,7.97
2018-08-24T19:09:50.892Z,11.23
2018-08-24T19:12:55.327Z,7.55
2018-08-24T19:15:59.791Z,6.67
2018-08-24T19:19:09.464Z,9.60
2018-08-24T19:22:13.914Z,8.70
2018-08-24T19:25:18.417Z,7.53
2018-08-24T19:28:28.123Z,8.60
2018-08-24T19:31:32.585Z,7.07
2018-08-24T19:34:37.020Z,8.37
2018-08-24T19:37:41.523Z,8.20
2018-08-24T19:42:59.705Z,8.48
2018-08-24T19:46:04.207Z,8.07
2018-08-24T19:49:24.111Z,9.83
2018-08-24T19:52:28.630Z,6.90
2018-08-24T19:55:33.045Z,12.65
2018-08-24T19:58:42.746Z,9.27
2018-08-24T20:01:47.274Z,8.57
2018-08-24T20:04:51.721Z,8.47
2018-08-24T20:08:01.505Z,8.03
2018-08-24T20:11:06.053Z,7.50
2018-08-24T20:14:10.494Z,7.10
2018-08-24T20:17:20.122Z,7.90
2018-08-24T20:20:24.586Z,11.18
2018-08-24T20:23:29.043Z,9.95
2018-08-24T20:26:33.555Z,9.28
2018-08-24T20:29:37.957Z,7.00
2018-08-24T20:32:42.401Z,6.47
2018-08-24T20:35:46.854Z,9.88
2018-08-24T20:38:51.278Z,7.45
2018-08-24T20:41:55.763Z,8.88
2018-08-24T20:45:00.170Z,9.45
2018-08-24T20:48:05.059Z,10.00
2018-08-24T20:51:09.481Z,7.50
2018-08-24T20:54:13.911Z,7.55
2018-08-24T20:57:18.355Z,9.00
2018-08-24T21:00:22.767Z,8.98
2018-08-24T21:03:27.290Z,9.68
2018-08-24T21:06:31.776Z,7.87
2018-08-24T21:09:37.527Z,9.60
2018-08-24T21:12:42.166Z,10.23
2018-08-24T21:15:46.566Z,7.90
2018-08-24T21:18:50.992Z,9.43
2018-08-24T21:21:55.402Z,10.08
2018-08-24T21:24:59.885Z,9.90
2018-08-24T21:28:04.313Z,8.13
2018-08-24T21:31:08.727Z,7.83
2018-08-24T21:34:13.266Z,8.48
2018-08-24T21:37:17.685Z,17.57
2018-08-24T21:40:22.205Z,7.57
2018-08-24T21:43:26.638Z,10.53
2018-08-24T21:46:31.045Z,9.75
2018-08-24T21:49:35.485Z,10.67
2018-08-24T21:52:39.899Z,7.50
2018-08-24T21:55:44.325Z,8.47
2018-08-24T21:58:48.960Z,7.83
2018-08-24T22:01:53.787Z,6.97
2018-08-24T22:04:58.288Z,10.33
2018-08-24T22:08:02.900Z,8.60
2018-08-24T22:11:07.450Z,8.43
2018-08-24T22:14:12.043Z,6.20
2018-08-24T22:17:16.666Z,8.07
2018-08-24T22:20:21.489Z,8.87
2018-08-24T22:23:26.053Z,8.43
2018-08-24T22:26:31.039Z,7.30
2018-08-24T22:29:35.738Z,8.70
2018-08-24T22:32:40.469Z,9.80
2018-08-24T22:35:45.003Z,7.50
2018-08-24T22:38:49.458Z,8.25
2018-08-24T22:41:53.919Z,9.00
2018-08-24T22:44:58.386Z,7.20
2018-08-24T22:48:02.842Z,8.07
2018-08-24T22:51:07.326Z,7.60
2018-08-24T22:54:11.779Z,8.07
2018-08-24T22:57:16.278Z,9.37
2018-08-24T23:00:20.762Z,9.13
2018-08-24T23:03:25.235Z,11.20
2018-08-24T23:06:29.726Z,7.73
2018-08-24T23:09:34.198Z,7.23
2018-08-24T23:12:38.687Z,8.00
2018-08-24T23:15:43.163Z,8.53
2018-08-24T23:18:47.606Z,8.27
2018-08-24T23:21:52.110Z,7.70
2018-08-24T23:24:56.761Z,10.43
2018-08-24T23:28:01.246Z,10.70
2018-08-24T23:31:06.153Z,7.53
2018-08-24T23:34:10.704Z,6.23
2018-08-24T23:37:15.243Z,10.97
2018-08-24T23:40:19.751Z,11.13
2018-08-24T23:43:24.279Z,7.93
2018-08-24T23:46:28.713Z,5.77
2018-08-24T23:49:33.132Z,5.67
2018-08-24T23:52:37.633Z,6.60
2018-08-24T23:55:42.150Z,7.87
2018-08-24T23:58:46.602Z,8.63
